sensor_id;sensor_type;location;lat;lon;timestamp;P1;durP1;ratioP1;P2;durP2;ratioP2
56911;SDS011;42800;53.928;27.662;2022-11-20T00:01:56;21.55;;;11.35;;
56911;SDS011;42800;53.928;27.662;2022-11-20T00:04:22;21.25;;;10.38;;
56911;SDS011;42800;53.928;27.662;2022-11-20T00:06:49;23.80;;;12.32;;
56911;SDS011;42800;53.928;27.662;2022-11-20T00:09:16;20.90;;;11.48;;
56911;SDS011;42800;53.928;27.662;2022-11-20T00:11:42;22.55;;;12.23;;
56911;SDS011;42800;53.928;27.662;2022-11-20T00:14:08;24.08;;;11.98;;
56911;SDS011;42800;53.928;27.662;2022-11-20T00:16:35;28.58;;;12.48;;
56911;SDS011;42800;53.928;27.662;2022-11-20T00:19:01;21.38;;;11.68;;
56911;SDS011;42800;53.928;27.662;2022-11-20T00:21:28;24.30;;;10.93;;
56911;SDS011;42800;53.928;27.662;2022-11-20T00:23:55;19.90;;;10.80;;
56911;SDS011;42800;53.928;27.662;2022-11-20T00:26:23;22.85;;;11.10;;
56911;SDS011;42800;53.928;27.662;2022-11-20T00:28:52;19.88;;;10.45;;
56911;SDS011;42800;53.928;27.662;2022-11-20T00:31:19;18.90;;;10.80;;
56911;SDS011;42800;53.928;27.662;2022-11-20T00:33:46;17.10;;;9.90;;
56911;SDS011;42800;53.928;27.662;2022-11-20T00:36:13;14.82;;;7.40;;
56911;SDS011;42800;53.928;27.662;2022-11-20T00:38:41;18.75;;;8.68;;
56911;SDS011;42800;53.928;27.662;2022-11-20T00:41:08;16.55;;;8.35;;
56911;SDS011;42800;53.928;27.662;2022-11-20T00:43:36;15.60;;;8.75;;
56911;SDS011;42800;53.928;27.662;2022-11-20T00:46:03;13.50;;;7.55;;
56911;SDS011;42800;53.928;27.662;2022-11-20T00:48:31;10.18;;;6.70;;
56911;SDS011;42800;53.928;27.662;2022-11-20T00:50:58;14.73;;;7.55;;
56911;SDS011;42800;53.928;27.662;2022-11-20T00:53:24;14.63;;;8.38;;
56911;SDS011;42800;53.928;27.662;2022-11-20T00:55:54;15.15;;;7.95;;
56911;SDS011;42800;53.928;27.662;2022-11-20T00:58:22;13.63;;;6.97;;
56911;SDS011;42800;53.928;27.662;2022-11-20T01:00:49;12.13;;;6.93;;
56911;SDS011;42800;53.928;27.662;2022-11-20T01:03:16;11.55;;;7.18;;
56911;SDS011;42800;53.928;27.662;2022-11-20T01:05:42;12.90;;;7.43;;
56911;SDS011;42800;53.928;27.662;2022-11-20T01:08:09;15.65;;;7.97;;
56911;SDS011;42800;53.928;27.662;2022-11-20T01:10:35;13.43;;;8.07;;
56911;SDS011;42800;53.928;27.662;2022-11-20T01:13:02;13.85;;;7.85;;
56911;SDS011;42800;53.928;27.662;2022-11-20T01:15:49;13.38;;;7.05;;
56911;SDS011;42800;53.928;27.662;2022-11-20T01:18:16;13.35;;;7.97;;
56911;SDS011;42800;53.928;27.662;2022-11-20T01:20:42;13.65;;;7.80;;
56911;SDS011;42800;53.928;27.662;2022-11-20T01:23:08;11.80;;;6.88;;
56911;SDS011;42800;53.928;27.662;2022-11-20T01:25:35;9.55;;;6.50;;
56911;SDS011;42800;53.928;27.662;2022-11-20T01:28:01;12.23;;;6.78;;
56911;SDS011;42800;53.928;27.662;2022-11-20T01:30:28;13.32;;;7.45;;
56911;SDS011;42800;53.928;27.662;2022-11-20T01:32:55;11.75;;;6.57;;
56911;SDS011;42800;53.928;27.662;2022-11-20T01:35:22;11.63;;;7.13;;
56911;SDS011;42800;53.928;27.662;2022-11-20T01:37:49;11.25;;;7.22;;
56911;SDS011;42800;53.928;27.662;2022-11-20T01:40:16;17.42;;;7.55;;
56911;SDS011;42800;53.928;27.662;2022-11-20T01:42:44;9.75;;;5.95;;
56911;SDS011;42800;53.928;27.662;2022-11-20T01:48:38;11.38;;;6.22;;
56911;SDS011;42800;53.928;27.662;2022-11-20T01:51:12;11.52;;;6.75;;
56911;SDS011;42800;53.928;27.662;2022-11-20T01:53:42;12.15;;;6.53;;
56911;SDS011;42800;53.928;27.662;2022-11-20T01:56:09;12.20;;;6.82;;
56911;SDS011;42800;53.928;27.662;2022-11-20T01:58:39;12.27;;;7.15;;
56911;SDS011;42800;53.928;27.662;2022-11-20T02:01:10;13.85;;;7.68;;
56911;SDS011;42800;53.928;27.662;2022-11-20T02:03:37;12.60;;;6.85;;
56911;SDS011;42800;53.928;27.662;2022-11-20T02:06:06;13.02;;;7.88;;
56911;SDS011;42800;53.928;27.662;2022-11-20T02:08:38;11.10;;;7.22;;
56911;SDS011;42800;53.928;27.662;2022-11-20T02:11:04;13.05;;;6.88;;
56911;SDS011;42800;53.928;27.662;2022-11-20T02:13:31;12.98;;;7.05;;
56911;SDS011;42800;53.928;27.662;2022-11-20T02:16:10;13.30;;;7.35;;
56911;SDS011;42800;53.928;27.662;2022-11-20T02:18:40;12.60;;;6.72;;
56911;SDS011;42800;53.928;27.662;2022-11-20T02:21:09;11.60;;;7.45;;
56911;SDS011;42800;53.928;27.662;2022-11-20T02:23:56;16.67;;;7.43;;
56911;SDS011;42800;53.928;27.662;2022-11-20T02:26:25;11.23;;;6.65;;
56911;SDS011;42800;53.928;27.662;2022-11-20T02:28:53;16.58;;;8.65;;
56911;SDS011;42800;53.928;27.662;2022-11-20T02:31:20;11.52;;;6.45;;
56911;SDS011;42800;53.928;27.662;2022-11-20T02:33:46;13.18;;;7.35;;
56911;SDS011;42800;53.928;27.662;2022-11-20T02:36:14;10.07;;;6.38;;
56911;SDS011;42800;53.928;27.662;2022-11-20T02:38:41;13.27;;;7.57;;
56911;SDS011;42800;53.928;27.662;2022-11-20T02:41:10;14.88;;;7.53;;
56911;SDS011;42800;53.928;27.662;2022-11-20T02:43:36;16.58;;;6.85;;
56911;SDS011;42800;53.928;27.662;2022-11-20T02:46:02;12.98;;;7.20;;
56911;SDS011;42800;53.928;27.662;2022-11-20T02:48:28;11.65;;;6.60;;
56911;SDS011;42800;53.928;27.662;2022-11-20T02:50:55;15.90;;;8.18;;
56911;SDS011;42800;53.928;27.662;2022-11-20T02:53:21;12.75;;;7.35;;
56911;SDS011;42800;53.928;27.662;2022-11-20T02:55:47;12.73;;;7.38;;
56911;SDS011;42800;53.928;27.662;2022-11-20T02:58:14;11.40;;;7.38;;
56911;SDS011;42800;53.928;27.662;2022-11-20T03:00:41;14.50;;;7.72;;
56911;SDS011;42800;53.928;27.662;2022-11-20T03:03:07;15.18;;;7.00;;
56911;SDS011;42800;53.928;27.662;2022-11-20T03:05:33;14.63;;;6.95;;
56911;SDS011;42800;53.928;27.662;2022-11-20T03:07:59;12.55;;;7.38;;
56911;SDS011;42800;53.928;27.662;2022-11-20T03:10:26;13.07;;;7.60;;
56911;SDS011;42800;53.928;27.662;2022-11-20T03:12:52;12.32;;;7.32;;
56911;SDS011;42800;53.928;27.662;2022-11-20T03:15:20;11.18;;;6.88;;
56911;SDS011;42800;53.928;27.662;2022-11-20T03:17:47;9.88;;;5.80;;
56911;SDS011;42800;53.928;27.662;2022-11-20T03:20:13;10.48;;;5.88;;
56911;SDS011;42800;53.928;27.662;2022-11-20T03:22:39;11.05;;;6.68;;
56911;SDS011;42800;53.928;27.662;2022-11-20T03:25:06;10.50;;;6.20;;
56911;SDS011;42800;53.928;27.662;2022-11-20T03:27:33;12.60;;;6.93;;
56911;SDS011;42800;53.928;27.662;2022-11-20T03:30:00;13.13;;;6.50;;
56911;SDS011;42800;53.928;27.662;2022-11-20T03:32:27;14.70;;;7.03;;
56911;SDS011;42800;53.928;27.662;2022-11-20T03:34:53;9.68;;;5.95;;
56911;SDS011;42800;53.928;27.662;2022-11-20T03:37:20;11.07;;;6.75;;
56911;SDS011;42800;53.928;27.662;2022-11-20T03:39:46;11.13;;;6.57;;
56911;SDS011;42800;53.928;27.662;2022-11-20T03:42:12;10.52;;;6.05;;
56911;SDS011;42800;53.928;27.662;2022-11-20T03:44:53;10.82;;;6.63;;
56911;SDS011;42800;53.928;27.662;2022-11-20T03:47:19;12.55;;;7.13;;
56911;SDS011;42800;53.928;27.662;2022-11-20T03:49:46;14.68;;;8.45;;
56911;SDS011;42800;53.928;27.662;2022-11-20T03:52:13;15.07;;;7.65;;
56911;SDS011;42800;53.928;27.662;2022-11-20T03:54:39;15.35;;;8.20;;
56911;SDS011;42800;53.928;27.662;2022-11-20T03:57:05;15.40;;;7.75;;
56911;SDS011;42800;53.928;27.662;2022-11-20T03:59:32;13.77;;;7.80;;
56911;SDS011;42800;53.928;27.662;2022-11-20T04:01:58;11.90;;;7.38;;
56911;SDS011;42800;53.928;27.662;2022-11-20T04:04:24;14.63;;;7.68;;
56911;SDS011;42800;53.928;27.662;2022-11-20T04:06:51;13.50;;;7.63;;
56911;SDS011;42800;53.928;27.662;2022-11-20T04:09:18;14.07;;;8.55;;
56911;SDS011;42800;53.928;27.662;2022-11-20T04:11:44;16.05;;;8.25;;
56911;SDS011;42800;53.928;27.662;2022-11-20T04:14:12;15.27;;;7.82;;
56911;SDS011;42800;53.928;27.662;2022-11-20T04:16:40;12.60;;;7.95;;
56911;SDS011;42800;53.928;27.662;2022-11-20T04:19:09;16.48;;;8.77;;
56911;SDS011;42800;53.928;27.662;2022-11-20T04:21:37;13.80;;;7.82;;
56911;SDS011;42800;53.928;27.662;2022-11-20T04:24:04;14.82;;;8.40;;
56911;SDS011;42800;53.928;27.662;2022-11-20T04:26:31;16.88;;;8.68;;
56911;SDS011;42800;53.928;27.662;2022-11-20T04:28:58;13.30;;;7.63;;
56911;SDS011;42800;53.928;27.662;2022-11-20T04:31:27;12.52;;;8.23;;
56911;SDS011;42800;53.928;27.662;2022-11-20T04:33:54;12.77;;;7.38;;
56911;SDS011;42800;53.928;27.662;2022-11-20T04:36:21;14.77;;;8.38;;
56911;SDS011;42800;53.928;27.662;2022-11-20T04:38:50;12.38;;;7.95;;
56911;SDS011;42800;53.928;27.662;2022-11-20T04:41:18;14.13;;;7.45;;
56911;SDS011;42800;53.928;27.662;2022-11-20T04:43:46;16.02;;;8.27;;
56911;SDS011;42800;53.928;27.662;2022-11-20T04:46:14;11.63;;;6.93;;
56911;SDS011;42800;53.928;27.662;2022-11-20T04:48:41;14.63;;;7.80;;
56911;SDS011;42800;53.928;27.662;2022-11-20T04:51:07;13.40;;;7.70;;
56911;SDS011;42800;53.928;27.662;2022-11-20T04:53:33;12.65;;;7.70;;
56911;SDS011;42800;53.928;27.662;2022-11-20T04:56:00;13.68;;;8.23;;
56911;SDS011;42800;53.928;27.662;2022-11-20T04:58:27;14.00;;;8.45;;
56911;SDS011;42800;53.928;27.662;2022-11-20T05:00:59;13.80;;;8.75;;
56911;SDS011;42800;53.928;27.662;2022-11-20T05:03:26;16.15;;;9.07;;
56911;SDS011;42800;53.928;27.662;2022-11-20T05:05:53;13.82;;;8.32;;
56911;SDS011;42800;53.928;27.662;2022-11-20T05:08:19;14.27;;;6.95;;
56911;SDS011;42800;53.928;27.662;2022-11-20T05:10:45;16.70;;;8.70;;
56911;SDS011;42800;53.928;27.662;2022-11-20T05:13:12;15.40;;;8.32;;
56911;SDS011;42800;53.928;27.662;2022-11-20T05:15:39;14.32;;;7.95;;
56911;SDS011;42800;53.928;27.662;2022-11-20T05:18:05;16.17;;;7.97;;
56911;SDS011;42800;53.928;27.662;2022-11-20T05:20:32;15.45;;;7.72;;
56911;SDS011;42800;53.928;27.662;2022-11-20T05:22:58;15.48;;;7.75;;
56911;SDS011;42800;53.928;27.662;2022-11-20T05:25:25;17.45;;;8.35;;
56911;SDS011;42800;53.928;27.662;2022-11-20T05:27:51;15.98;;;8.93;;
56911;SDS011;42800;53.928;27.662;2022-11-20T05:30:18;12.85;;;7.70;;
56911;SDS011;42800;53.928;27.662;2022-11-20T05:32:45;17.75;;;8.50;;
56911;SDS011;42800;53.928;27.662;2022-11-20T05:35:11;14.93;;;8.43;;
56911;SDS011;42800;53.928;27.662;2022-11-20T05:37:38;16.25;;;9.00;;
56911;SDS011;42800;53.928;27.662;2022-11-20T05:40:04;16.40;;;8.18;;
56911;SDS011;42800;53.928;27.662;2022-11-20T05:42:33;15.57;;;8.43;;
56911;SDS011;42800;53.928;27.662;2022-11-20T05:45:01;13.90;;;8.65;;
56911;SDS011;42800;53.928;27.662;2022-11-20T05:47:31;14.02;;;8.43;;
56911;SDS011;42800;53.928;27.662;2022-11-20T05:50:00;14.80;;;7.57;;
56911;SDS011;42800;53.928;27.662;2022-11-20T05:52:27;13.32;;;7.95;;
56911;SDS011;42800;53.928;27.662;2022-11-20T05:54:54;15.55;;;8.52;;
56911;SDS011;42800;53.928;27.662;2022-11-20T05:57:20;14.43;;;8.23;;
56911;SDS011;42800;53.928;27.662;2022-11-20T05:59:46;13.30;;;7.10;;
56911;SDS011;42800;53.928;27.662;2022-11-20T06:02:12;14.70;;;7.93;;
56911;SDS011;42800;53.928;27.662;2022-11-20T06:04:39;13.25;;;7.22;;
56911;SDS011;42800;53.928;27.662;2022-11-20T06:07:10;11.85;;;7.82;;
56911;SDS011;42800;53.928;27.662;2022-11-20T06:09:36;12.85;;;8.30;;
56911;SDS011;42800;53.928;27.662;2022-11-20T06:12:02;14.85;;;7.32;;
56911;SDS011;42800;53.928;27.662;2022-11-20T06:14:29;16.77;;;8.50;;
56911;SDS011;42800;53.928;27.662;2022-11-20T06:16:55;13.80;;;7.82;;
56911;SDS011;42800;53.928;27.662;2022-11-20T06:19:22;10.25;;;6.63;;
56911;SDS011;42800;53.928;27.662;2022-11-20T06:21:49;12.45;;;7.18;;
56911;SDS011;42800;53.928;27.662;2022-11-20T06:24:16;14.43;;;8.93;;
56911;SDS011;42800;53.928;27.662;2022-11-20T06:26:43;13.60;;;8.30;;
56911;SDS011;42800;53.928;27.662;2022-11-20T06:29:09;14.13;;;8.13;;
56911;SDS011;42800;53.928;27.662;2022-11-20T06:31:36;15.63;;;7.68;;
56911;SDS011;42800;53.928;27.662;2022-11-20T06:34:03;17.05;;;8.52;;
56911;SDS011;42800;53.928;27.662;2022-11-20T06:36:29;12.52;;;7.50;;
56911;SDS011;42800;53.928;27.662;2022-11-20T06:38:56;15.35;;;7.47;;
56911;SDS011;42800;53.928;27.662;2022-11-20T06:41:23;12.20;;;6.93;;
56911;SDS011;42800;53.928;27.662;2022-11-20T06:43:50;12.65;;;7.03;;
56911;SDS011;42800;53.928;27.662;2022-11-20T06:46:17;12.48;;;7.60;;
56911;SDS011;42800;53.928;27.662;2022-11-20T06:48:44;12.90;;;6.97;;
56911;SDS011;42800;53.928;27.662;2022-11-20T06:51:11;15.20;;;7.95;;
56911;SDS011;42800;53.928;27.662;2022-11-20T06:53:38;17.95;;;7.85;;
56911;SDS011;42800;53.928;27.662;2022-11-20T06:56:05;16.17;;;7.95;;
56911;SDS011;42800;53.928;27.662;2022-11-20T06:58:33;18.80;;;8.05;;
56911;SDS011;42800;53.928;27.662;2022-11-20T07:01:01;12.93;;;6.80;;
56911;SDS011;42800;53.928;27.662;2022-11-20T07:03:28;15.00;;;7.90;;
56911;SDS011;42800;53.928;27.662;2022-11-20T07:05:55;13.25;;;7.88;;
56911;SDS011;42800;53.928;27.662;2022-11-20T07:08:22;15.52;;;7.97;;
56911;SDS011;42800;53.928;27.662;2022-11-20T07:10:48;15.90;;;7.65;;
56911;SDS011;42800;53.928;27.662;2022-11-20T07:13:14;15.32;;;7.75;;
56911;SDS011;42800;53.928;27.662;2022-11-20T07:15:41;18.02;;;9.90;;
56911;SDS011;42800;53.928;27.662;2022-11-20T07:18:08;16.90;;;8.43;;
56911;SDS011;42800;53.928;27.662;2022-11-20T07:20:34;15.73;;;8.48;;
56911;SDS011;42800;53.928;27.662;2022-11-20T07:23:00;17.58;;;9.27;;
56911;SDS011;42800;53.928;27.662;2022-11-20T07:25:27;17.40;;;8.82;;
56911;SDS011;42800;53.928;27.662;2022-11-20T07:27:56;20.65;;;9.68;;
56911;SDS011;42800;53.928;27.662;2022-11-20T07:30:23;13.65;;;8.20;;
56911;SDS011;42800;53.928;27.662;2022-11-20T07:32:51;12.93;;;7.97;;
56911;SDS011;42800;53.928;27.662;2022-11-20T07:35:18;14.77;;;7.82;;
56911;SDS011;42800;53.928;27.662;2022-11-20T07:37:44;13.32;;;8.68;;
56911;SDS011;42800;53.928;27.662;2022-11-20T07:40:11;15.70;;;7.65;;
56911;SDS011;42800;53.928;27.662;2022-11-20T07:42:38;13.25;;;6.57;;
56911;SDS011;42800;53.928;27.662;2022-11-20T07:45:04;12.10;;;7.25;;
56911;SDS011;42800;53.928;27.662;2022-11-20T07:47:34;12.05;;;6.03;;
56911;SDS011;42800;53.928;27.662;2022-11-20T07:50:02;12.55;;;7.05;;
56911;SDS011;42800;53.928;27.662;2022-11-20T07:52:28;12.18;;;7.00;;
56911;SDS011;42800;53.928;27.662;2022-11-20T07:54:55;16.45;;;7.35;;
56911;SDS011;42800;53.928;27.662;2022-11-20T07:57:21;13.73;;;7.78;;
56911;SDS011;42800;53.928;27.662;2022-11-20T07:59:47;13.63;;;7.22;;
56911;SDS011;42800;53.928;27.662;2022-11-20T08:02:13;14.52;;;7.65;;
56911;SDS011;42800;53.928;27.662;2022-11-20T08:04:40;13.00;;;7.22;;
56911;SDS011;42800;53.928;27.662;2022-11-20T08:07:07;15.00;;;7.60;;
56911;SDS011;42800;53.928;27.662;2022-11-20T08:09:33;12.82;;;7.28;;
56911;SDS011;42800;53.928;27.662;2022-11-20T08:11:59;13.82;;;7.50;;
56911;SDS011;42800;53.928;27.662;2022-11-20T08:14:43;12.23;;;6.80;;
56911;SDS011;42800;53.928;27.662;2022-11-20T08:17:10;15.75;;;8.23;;
56911;SDS011;42800;53.928;27.662;2022-11-20T08:19:36;17.88;;;8.20;;
56911;SDS011;42800;53.928;27.662;2022-11-20T08:22:02;16.45;;;8.52;;
56911;SDS011;42800;53.928;27.662;2022-11-20T08:24:29;12.48;;;7.55;;
56911;SDS011;42800;53.928;27.662;2022-11-20T08:26:56;15.50;;;7.60;;
56911;SDS011;42800;53.928;27.662;2022-11-20T08:29:23;16.13;;;8.85;;
56911;SDS011;42800;53.928;27.662;2022-11-20T08:31:49;13.65;;;7.47;;
56911;SDS011;42800;53.928;27.662;2022-11-20T08:34:16;16.85;;;8.57;;
56911;SDS011;42800;53.928;27.662;2022-11-20T08:36:42;12.38;;;7.25;;
56911;SDS011;42800;53.928;27.662;2022-11-20T08:39:10;13.75;;;7.85;;
56911;SDS011;42800;53.928;27.662;2022-11-20T08:41:38;15.05;;;8.00;;
56911;SDS011;42800;53.928;27.662;2022-11-20T08:44:05;14.38;;;7.35;;
56911;SDS011;42800;53.928;27.662;2022-11-20T08:46:33;16.77;;;8.27;;
56911;SDS011;42800;53.928;27.662;2022-11-20T08:49:02;16.05;;;8.63;;
56911;SDS011;42800;53.928;27.662;2022-11-20T08:51:28;16.40;;;8.32;;
56911;SDS011;42800;53.928;27.662;2022-11-20T08:53:54;17.13;;;9.18;;
56911;SDS011;42800;53.928;27.662;2022-11-20T08:56:20;13.48;;;8.43;;
56911;SDS011;42800;53.928;27.662;2022-11-20T08:58:49;16.10;;;8.43;;
56911;SDS011;42800;53.928;27.662;2022-11-20T09:01:16;15.98;;;8.30;;
56911;SDS011;42800;53.928;27.662;2022-11-20T09:03:42;12.63;;;7.45;;
56911;SDS011;42800;53.928;27.662;2022-11-20T09:06:09;13.93;;;7.90;;
56911;SDS011;42800;53.928;27.662;2022-11-20T09:08:35;13.02;;;7.20;;
56911;SDS011;42800;53.928;27.662;2022-11-20T09:11:01;16.20;;;8.50;;
56911;SDS011;42800;53.928;27.662;2022-11-20T09:13:28;16.23;;;8.05;;
56911;SDS011;42800;53.928;27.662;2022-11-20T09:15:56;16.95;;;8.05;;
56911;SDS011;42800;53.928;27.662;2022-11-20T09:18:24;19.27;;;8.63;;
56911;SDS011;42800;53.928;27.662;2022-11-20T09:20:51;16.98;;;8.63;;
56911;SDS011;42800;53.928;27.662;2022-11-20T09:23:17;14.55;;;8.32;;
56911;SDS011;42800;53.928;27.662;2022-11-20T09:25:44;18.23;;;8.27;;
56911;SDS011;42800;53.928;27.662;2022-11-20T09:28:10;16.52;;;8.43;;
56911;SDS011;42800;53.928;27.662;2022-11-20T09:30:36;11.60;;;7.43;;
56911;SDS011;42800;53.928;27.662;2022-11-20T09:33:04;12.43;;;7.13;;
56911;SDS011;42800;53.928;27.662;2022-11-20T09:35:31;12.40;;;6.75;;
56911;SDS011;42800;53.928;27.662;2022-11-20T09:37:57;16.90;;;7.43;;
56911;SDS011;42800;53.928;27.662;2022-11-20T09:40:25;11.68;;;6.45;;
56911;SDS011;42800;53.928;27.662;2022-11-20T09:42:54;7.47;;;5.20;;
56911;SDS011;42800;53.928;27.662;2022-11-20T09:45:30;10.80;;;6.30;;
56911;SDS011;42800;53.928;27.662;2022-11-20T09:48:20;12.82;;;6.68;;
56911;SDS011;42800;53.928;27.662;2022-11-20T09:51:03;13.15;;;6.72;;
56911;SDS011;42800;53.928;27.662;2022-11-20T09:53:40;11.65;;;7.30;;
56911;SDS011;42800;53.928;27.662;2022-11-20T09:56:15;12.60;;;6.50;;
56911;SDS011;42800;53.928;27.662;2022-11-20T09:58:45;13.07;;;7.60;;
56911;SDS011;42800;53.928;27.662;2022-11-20T10:01:15;13.85;;;8.18;;
56911;SDS011;42800;53.928;27.662;2022-11-20T10:03:48;18.90;;;6.90;;
56911;SDS011;42800;53.928;27.662;2022-11-20T10:06:21;12.57;;;7.10;;
56911;SDS011;42800;53.928;27.662;2022-11-20T10:08:55;16.08;;;7.55;;
56911;SDS011;42800;53.928;27.662;2022-11-20T10:11:33;14.68;;;7.20;;
56911;SDS011;42800;53.928;27.662;2022-11-20T10:14:11;12.50;;;6.63;;
56911;SDS011;42800;53.928;27.662;2022-11-20T10:16:50;13.18;;;8.00;;
56911;SDS011;42800;53.928;27.662;2022-11-20T10:19:30;16.05;;;7.47;;
56911;SDS011;42800;53.928;27.662;2022-11-20T10:22:10;15.55;;;8.02;;
56911;SDS011;42800;53.928;27.662;2022-11-20T10:24:47;16.33;;;7.85;;
56911;SDS011;42800;53.928;27.662;2022-11-20T10:27:29;18.52;;;8.45;;
56911;SDS011;42800;53.928;27.662;2022-11-20T10:30:18;14.57;;;8.23;;
56911;SDS011;42800;53.928;27.662;2022-11-20T10:32:47;12.77;;;7.35;;
56911;SDS011;42800;53.928;27.662;2022-11-20T10:35:20;13.32;;;7.55;;
56911;SDS011;42800;53.928;27.662;2022-11-20T10:37:50;15.88;;;8.13;;
56911;SDS011;42800;53.928;27.662;2022-11-20T10:40:23;16.30;;;8.70;;
56911;SDS011;42800;53.928;27.662;2022-11-20T10:42:57;12.57;;;7.82;;
56911;SDS011;42800;53.928;27.662;2022-11-20T10:45:36;16.38;;;6.85;;
56911;SDS011;42800;53.928;27.662;2022-11-20T10:48:11;20.75;;;8.85;;
56911;SDS011;42800;53.928;27.662;2022-11-20T10:50:44;14.10;;;7.75;;
56911;SDS011;42800;53.928;27.662;2022-11-20T10:53:28;13.25;;;7.35;;
56911;SDS011;42800;53.928;27.662;2022-11-20T10:56:11;14.20;;;7.70;;
56911;SDS011;42800;53.928;27.662;2022-11-20T10:58:45;20.20;;;8.27;;
56911;SDS011;42800;53.928;27.662;2022-11-20T11:01:21;16.80;;;8.50;;
56911;SDS011;42800;53.928;27.662;2022-11-20T11:03:48;12.68;;;6.63;;
56911;SDS011;42800;53.928;27.662;2022-11-20T11:06:19;13.55;;;7.18;;
56911;SDS011;42800;53.928;27.662;2022-11-20T11:08:51;13.65;;;6.93;;
56911;SDS011;42800;53.928;27.662;2022-11-20T11:11:23;12.00;;;6.88;;
56911;SDS011;42800;53.928;27.662;2022-11-20T11:13:51;11.30;;;6.70;;
56911;SDS011;42800;53.928;27.662;2022-11-20T11:16:21;10.32;;;6.38;;
56911;SDS011;42800;53.928;27.662;2022-11-20T11:18:49;11.35;;;6.45;;
56911;SDS011;42800;53.928;27.662;2022-11-20T11:21:21;11.52;;;6.72;;
56911;SDS011;42800;53.928;27.662;2022-11-20T11:23:57;15.67;;;8.07;;
56911;SDS011;42800;53.928;27.662;2022-11-20T11:26:25;12.18;;;6.97;;
56911;SDS011;42800;53.928;27.662;2022-11-20T11:28:53;14.43;;;6.97;;
56911;SDS011;42800;53.928;27.662;2022-11-20T11:31:23;16.20;;;7.13;;
56911;SDS011;42800;53.928;27.662;2022-11-20T11:33:50;15.85;;;8.68;;
56911;SDS011;42800;53.928;27.662;2022-11-20T11:36:17;11.63;;;7.20;;
56911;SDS011;42800;53.928;27.662;2022-11-20T11:38:50;16.85;;;7.93;;
56911;SDS011;42800;53.928;27.662;2022-11-20T11:41:19;14.90;;;6.82;;
56911;SDS011;42800;53.928;27.662;2022-11-20T11:43:51;12.48;;;6.72;;
56911;SDS011;42800;53.928;27.662;2022-11-20T11:46:37;14.20;;;7.68;;
56911;SDS011;42800;53.928;27.662;2022-11-20T11:49:14;12.82;;;7.45;;
56911;SDS011;42800;53.928;27.662;2022-11-20T11:51:45;15.15;;;6.93;;
56911;SDS011;42800;53.928;27.662;2022-11-20T11:54:23;15.45;;;7.63;;
56911;SDS011;42800;53.928;27.662;2022-11-20T11:56:53;15.55;;;7.60;;
56911;SDS011;42800;53.928;27.662;2022-11-20T11:59:22;14.32;;;8.05;;
56911;SDS011;42800;53.928;27.662;2022-11-20T12:01:55;14.10;;;7.00;;
56911;SDS011;42800;53.928;27.662;2022-11-20T12:04:28;10.88;;;6.07;;
56911;SDS011;42800;53.928;27.662;2022-11-20T12:07:08;14.73;;;7.40;;
56911;SDS011;42800;53.928;27.662;2022-11-20T12:09:41;12.43;;;7.03;;
56911;SDS011;42800;53.928;27.662;2022-11-20T12:12:12;15.63;;;8.77;;
56911;SDS011;42800;53.928;27.662;2022-11-20T12:14:45;22.67;;;10.43;;
56911;SDS011;42800;53.928;27.662;2022-11-20T12:17:15;17.15;;;8.88;;
56911;SDS011;42800;53.928;27.662;2022-11-20T12:19:43;16.98;;;9.38;;
56911;SDS011;42800;53.928;27.662;2022-11-20T12:22:16;13.60;;;7.45;;
56911;SDS011;42800;53.928;27.662;2022-11-20T12:24:58;15.07;;;8.55;;
56911;SDS011;42800;53.928;27.662;2022-11-20T12:30:19;13.38;;;7.38;;
56911;SDS011;42800;53.928;27.662;2022-11-20T12:33:01;13.13;;;6.93;;
56911;SDS011;42800;53.928;27.662;2022-11-20T12:35:42;10.10;;;6.10;;
56911;SDS011;42800;53.928;27.662;2022-11-20T12:38:37;11.20;;;6.10;;
56911;SDS011;42800;53.928;27.662;2022-11-20T12:41:24;10.57;;;6.10;;
56911;SDS011;42800;53.928;27.662;2022-11-20T12:44:26;10.15;;;6.30;;
56911;SDS011;42800;53.928;27.662;2022-11-20T12:47:36;11.07;;;6.85;;
56911;SDS011;42800;53.928;27.662;2022-11-20T12:50:14;10.68;;;6.47;;
56911;SDS011;42800;53.928;27.662;2022-11-20T12:52:55;11.52;;;6.22;;
56911;SDS011;42800;53.928;27.662;2022-11-20T12:55:32;13.90;;;6.93;;
56911;SDS011;42800;53.928;27.662;2022-11-20T12:58:15;14.13;;;7.45;;
56911;SDS011;42800;53.928;27.662;2022-11-20T13:00:50;14.40;;;7.97;;
56911;SDS011;42800;53.928;27.662;2022-11-20T13:03:34;15.45;;;7.25;;
56911;SDS011;42800;53.928;27.662;2022-11-20T13:06:05;10.40;;;6.50;;
56911;SDS011;42800;53.928;27.662;2022-11-20T13:08:40;13.77;;;8.00;;
56911;SDS011;42800;53.928;27.662;2022-11-20T13:11:11;12.25;;;6.88;;
56911;SDS011;42800;53.928;27.662;2022-11-20T13:13:45;12.13;;;7.17;;
56911;SDS011;42800;53.928;27.662;2022-11-20T13:16:24;11.52;;;6.88;;
56911;SDS011;42800;53.928;27.662;2022-11-20T13:19:00;11.38;;;6.18;;
56911;SDS011;42800;53.928;27.662;2022-11-20T13:21:35;9.32;;;6.05;;
56911;SDS011;42800;53.928;27.662;2022-11-20T13:24:06;10.75;;;6.55;;
56911;SDS011;42800;53.928;27.662;2022-11-20T13:26:33;12.38;;;6.47;;
56911;SDS011;42800;53.928;27.662;2022-11-20T13:29:02;9.68;;;5.90;;
56911;SDS011;42800;53.928;27.662;2022-11-20T13:34:01;10.40;;;6.35;;
56911;SDS011;42800;53.928;27.662;2022-11-20T13:36:29;9.63;;;6.28;;
56911;SDS011;42800;53.928;27.662;2022-11-20T13:38:57;10.20;;;6.25;;
56911;SDS011;42800;53.928;27.662;2022-11-20T13:41:25;12.70;;;6.85;;
56911;SDS011;42800;53.928;27.662;2022-11-20T13:43:53;11.77;;;6.40;;
56911;SDS011;42800;53.928;27.662;2022-11-20T13:46:23;14.60;;;7.30;;
56911;SDS011;42800;53.928;27.662;2022-11-20T13:49:05;15.07;;;7.22;;
56911;SDS011;42800;53.928;27.662;2022-11-20T13:51:35;14.90;;;8.07;;
56911;SDS011;42800;53.928;27.662;2022-11-20T13:54:18;12.85;;;7.47;;
56911;SDS011;42800;53.928;27.662;2022-11-20T13:57:13;14.27;;;7.35;;
56911;SDS011;42800;53.928;27.662;2022-11-20T14:00:04;17.92;;;9.38;;
56911;SDS011;42800;53.928;27.662;2022-11-20T14:02:38;16.50;;;7.45;;
56911;SDS011;42800;53.928;27.662;2022-11-20T14:05:06;13.77;;;7.88;;
56911;SDS011;42800;53.928;27.662;2022-11-20T14:07:44;18.27;;;9.13;;
56911;SDS011;42800;53.928;27.662;2022-11-20T14:10:19;15.57;;;7.50;;
56911;SDS011;42800;53.928;27.662;2022-11-20T14:12:47;19.95;;;9.15;;
56911;SDS011;42800;53.928;27.662;2022-11-20T14:15:23;14.65;;;8.52;;
56911;SDS011;42800;53.928;27.662;2022-11-20T14:17:51;19.73;;;10.32;;
56911;SDS011;42800;53.928;27.662;2022-11-20T14:20:18;19.30;;;9.30;;
56911;SDS011;42800;53.928;27.662;2022-11-20T14:22:48;15.63;;;8.90;;
56911;SDS011;42800;53.928;27.662;2022-11-20T14:25:19;16.45;;;8.32;;
56911;SDS011;42800;53.928;27.662;2022-11-20T14:27:50;14.93;;;8.35;;
56911;SDS011;42800;53.928;27.662;2022-11-20T14:30:19;13.75;;;7.35;;
56911;SDS011;42800;53.928;27.662;2022-11-20T14:32:47;11.60;;;7.03;;
56911;SDS011;42800;53.928;27.662;2022-11-20T14:35:16;14.00;;;7.15;;
56911;SDS011;42800;53.928;27.662;2022-11-20T14:37:47;14.30;;;7.63;;
56911;SDS011;42800;53.928;27.662;2022-11-20T14:40:28;11.75;;;7.18;;
56911;SDS011;42800;53.928;27.662;2022-11-20T14:42:57;15.45;;;7.38;;
56911;SDS011;42800;53.928;27.662;2022-11-20T14:45:24;19.67;;;7.35;;